sensor_id;sensor_type;location;lat;lon;timestamp;P1;durP1;ratioP1;P2;durP2;ratioP2
527;SDS011;250;47.712;7.508;2022-10-16T00:01:07;4.47;;;2.40;;
527;SDS011;250;47.712;7.508;2022-10-16T00:03:36;4.23;;;2.63;;
527;SDS011;250;47.712;7.508;2022-10-16T00:06:04;6.33;;;3.40;;
527;SDS011;250;47.712;7.508;2022-10-16T00:08:33;5.23;;;3.17;;
527;SDS011;250;47.712;7.508;2022-10-16T00:11:01;7.70;;;2.97;;
527;SDS011;250;47.712;7.508;2022-10-16T00:13:30;5.30;;;3.60;;
527;SDS011;250;47.712;7.508;2022-10-16T00:15:58;5.70;;;3.40;;
527;SDS011;250;47.712;7.508;2022-10-16T00:18:25;6.43;;;3.23;;
527;SDS011;250;47.712;7.508;2022-10-16T00:20:54;5.23;;;3.20;;
527;SDS011;250;47.712;7.508;2022-10-16T00:23:21;5.80;;;3.70;;
527;SDS011;250;47.712;7.508;2022-10-16T00:25:56;4.90;;;2.93;;
527;SDS011;250;47.712;7.508;2022-10-16T00:28:25;4.63;;;2.40;;
527;SDS011;250;47.712;7.508;2022-10-16T00:30:52;5.73;;;3.40;;
527;SDS011;250;47.712;7.508;2022-10-16T00:33:20;6.33;;;3.20;;
527;SDS011;250;47.712;7.508;2022-10-16T00:35:47;6.33;;;3.07;;
527;SDS011;250;47.712;7.508;2022-10-16T00:38:15;5.93;;;3.10;;
527;SDS011;250;47.712;7.508;2022-10-16T00:40:42;4.40;;;2.53;;
527;SDS011;250;47.712;7.508;2022-10-16T00:43:13;4.47;;;2.90;;
527;SDS011;250;47.712;7.508;2022-10-16T00:45:58;7.00;;;3.17;;
527;SDS011;250;47.712;7.508;2022-10-16T00:48:26;5.07;;;2.97;;
527;SDS011;250;47.712;7.508;2022-10-16T00:50:53;4.57;;;3.23;;
527;SDS011;250;47.712;7.508;2022-10-16T00:53:20;5.37;;;3.07;;
527;SDS011;250;47.712;7.508;2022-10-16T00:55:48;5.43;;;3.20;;
527;SDS011;250;47.712;7.508;2022-10-16T00:58:16;8.43;;;2.80;;
527;SDS011;250;47.712;7.508;2022-10-16T01:00:43;6.60;;;4.27;;
527;SDS011;250;47.712;7.508;2022-10-16T01:03:22;4.47;;;3.23;;
527;SDS011;250;47.712;7.508;2022-10-16T01:05:51;4.50;;;3.20;;
527;SDS011;250;47.712;7.508;2022-10-16T01:08:27;8.20;;;2.97;;
527;SDS011;250;47.712;7.508;2022-10-16T01:11:01;3.07;;;2.40;;
527;SDS011;250;47.712;7.508;2022-10-16T01:13:35;3.20;;;2.33;;
527;SDS011;250;47.712;7.508;2022-10-16T01:16:07;5.27;;;2.50;;
527;SDS011;250;47.712;7.508;2022-10-16T01:18:40;3.33;;;2.80;;
527;SDS011;250;47.712;7.508;2022-10-16T01:21:12;7.27;;;2.53;;
527;SDS011;250;47.712;7.508;2022-10-16T01:23:45;4.00;;;2.87;;
527;SDS011;250;47.712;7.508;2022-10-16T01:26:24;6.20;;;2.67;;
527;SDS011;250;47.712;7.508;2022-10-16T01:29:02;6.10;;;2.50;;
527;SDS011;250;47.712;7.508;2022-10-16T01:31:34;5.40;;;2.50;;
527;SDS011;250;47.712;7.508;2022-10-16T01:34:05;4.43;;;2.27;;
527;SDS011;250;47.712;7.508;2022-10-16T01:36:37;5.73;;;2.70;;
527;SDS011;250;47.712;7.508;2022-10-16T01:39:06;4.80;;;2.27;;
527;SDS011;250;47.712;7.508;2022-10-16T01:41:37;3.60;;;2.10;;
527;SDS011;250;47.712;7.508;2022-10-16T01:44:09;3.67;;;2.00;;
527;SDS011;250;47.712;7.508;2022-10-16T01:46:42;2.60;;;1.90;;
527;SDS011;250;47.712;7.508;2022-10-16T01:49:12;5.20;;;2.20;;
527;SDS011;250;47.712;7.508;2022-10-16T01:51:39;5.57;;;1.80;;
527;SDS011;250;47.712;7.508;2022-10-16T01:54:11;4.60;;;2.43;;
527;SDS011;250;47.712;7.508;2022-10-16T01:56:40;4.40;;;1.77;;
527;SDS011;250;47.712;7.508;2022-10-16T01:59:10;3.43;;;1.80;;
527;SDS011;250;47.712;7.508;2022-10-16T02:01:42;3.47;;;2.37;;
527;SDS011;250;47.712;7.508;2022-10-16T02:04:13;3.90;;;2.43;;
527;SDS011;250;47.712;7.508;2022-10-16T02:06:43;2.63;;;2.00;;
527;SDS011;250;47.712;7.508;2022-10-16T02:09:10;3.60;;;2.33;;
527;SDS011;250;47.712;7.508;2022-10-16T02:11:37;4.27;;;2.17;;
527;SDS011;250;47.712;7.508;2022-10-16T02:14:04;3.33;;;2.20;;
527;SDS011;250;47.712;7.508;2022-10-16T02:16:34;4.93;;;3.87;;
527;SDS011;250;47.712;7.508;2022-10-16T02:19:04;4.53;;;1.83;;
527;SDS011;250;47.712;7.508;2022-10-16T02:21:33;8.80;;;2.20;;
527;SDS011;250;47.712;7.508;2022-10-16T02:24:08;2.30;;;1.90;;
527;SDS011;250;47.712;7.508;2022-10-16T02:26:42;3.00;;;2.27;;
527;SDS011;250;47.712;7.508;2022-10-16T02:29:16;3.30;;;1.73;;
527;SDS011;250;47.712;7.508;2022-10-16T02:31:48;3.83;;;1.90;;
527;SDS011;250;47.712;7.508;2022-10-16T02:34:18;3.90;;;2.17;;
527;SDS011;250;47.712;7.508;2022-10-16T02:36:49;3.13;;;2.37;;
527;SDS011;250;47.712;7.508;2022-10-16T02:39:18;3.80;;;2.10;;
527;SDS011;250;47.712;7.508;2022-10-16T02:41:45;4.53;;;2.27;;
527;SDS011;250;47.712;7.508;2022-10-16T02:44:13;3.30;;;2.10;;
527;SDS011;250;47.712;7.508;2022-10-16T02:46:40;4.73;;;2.40;;
527;SDS011;250;47.712;7.508;2022-10-16T02:49:08;12.90;;;2.90;;
527;SDS011;250;47.712;7.508;2022-10-16T02:51:35;6.80;;;2.30;;
527;SDS011;250;47.712;7.508;2022-10-16T02:54:02;3.00;;;2.20;;
527;SDS011;250;47.712;7.508;2022-10-16T02:56:30;3.97;;;2.10;;
527;SDS011;250;47.712;7.508;2022-10-16T02:58:57;8.50;;;2.60;;
527;SDS011;250;47.712;7.508;2022-10-16T03:01:24;7.03;;;3.13;;
527;SDS011;250;47.712;7.508;2022-10-16T03:03:51;3.67;;;2.50;;
527;SDS011;250;47.712;7.508;2022-10-16T03:06:19;4.00;;;2.90;;
527;SDS011;250;47.712;7.508;2022-10-16T03:08:46;5.30;;;3.37;;
527;SDS011;250;47.712;7.508;2022-10-16T03:11:13;5.10;;;3.83;;
527;SDS011;250;47.712;7.508;2022-10-16T03:13:40;7.03;;;3.30;;
527;SDS011;250;47.712;7.508;2022-10-16T03:16:07;7.20;;;3.03;;
527;SDS011;250;47.712;7.508;2022-10-16T03:18:34;6.37;;;2.73;;
527;SDS011;250;47.712;7.508;2022-10-16T03:21:01;6.60;;;2.30;;
527;SDS011;250;47.712;7.508;2022-10-16T03:23:30;11.60;;;4.97;;
527;SDS011;250;47.712;7.508;2022-10-16T03:25:57;3.93;;;3.23;;
527;SDS011;250;47.712;7.508;2022-10-16T03:28:24;3.73;;;2.50;;
527;SDS011;250;47.712;7.508;2022-10-16T03:30:51;3.90;;;3.00;;
527;SDS011;250;47.712;7.508;2022-10-16T03:33:18;5.50;;;2.50;;
527;SDS011;250;47.712;7.508;2022-10-16T03:35:50;4.00;;;2.50;;
527;SDS011;250;47.712;7.508;2022-10-16T03:38:18;5.20;;;2.00;;
527;SDS011;250;47.712;7.508;2022-10-16T03:40:46;7.87;;;2.60;;
527;SDS011;250;47.712;7.508;2022-10-16T03:43:13;4.00;;;2.07;;
527;SDS011;250;47.712;7.508;2022-10-16T03:45:40;5.87;;;3.27;;
527;SDS011;250;47.712;7.508;2022-10-16T03:48:07;9.10;;;2.70;;
527;SDS011;250;47.712;7.508;2022-10-16T03:50:34;3.27;;;2.20;;
527;SDS011;250;47.712;7.508;2022-10-16T03:53:01;5.40;;;2.77;;
527;SDS011;250;47.712;7.508;2022-10-16T03:55:28;8.70;;;2.77;;
527;SDS011;250;47.712;7.508;2022-10-16T03:57:57;5.30;;;3.10;;
527;SDS011;250;47.712;7.508;2022-10-16T04:00:24;4.33;;;2.40;;
527;SDS011;250;47.712;7.508;2022-10-16T04:02:51;6.93;;;2.57;;
527;SDS011;250;47.712;7.508;2022-10-16T04:05:18;3.20;;;2.30;;
527;SDS011;250;47.712;7.508;2022-10-16T04:07:45;9.70;;;3.00;;
527;SDS011;250;47.712;7.508;2022-10-16T04:10:12;4.37;;;2.10;;
527;SDS011;250;47.712;7.508;2022-10-16T04:12:39;5.90;;;2.30;;
527;SDS011;250;47.712;7.508;2022-10-16T04:15:07;2.73;;;2.20;;
527;SDS011;250;47.712;7.508;2022-10-16T04:17:35;5.33;;;2.50;;
527;SDS011;250;47.712;7.508;2022-10-16T04:20:02;3.73;;;2.60;;
527;SDS011;250;47.712;7.508;2022-10-16T04:22:30;6.00;;;2.70;;
527;SDS011;250;47.712;7.508;2022-10-16T04:24:57;6.00;;;3.20;;
527;SDS011;250;47.712;7.508;2022-10-16T04:27:23;3.80;;;2.57;;
527;SDS011;250;47.712;7.508;2022-10-16T04:29:51;3.67;;;2.83;;
527;SDS011;250;47.712;7.508;2022-10-16T04:32:19;4.33;;;2.93;;
527;SDS011;250;47.712;7.508;2022-10-16T04:34:46;3.47;;;2.73;;
527;SDS011;250;47.712;7.508;2022-10-16T04:37:13;3.67;;;2.67;;
527;SDS011;250;47.712;7.508;2022-10-16T04:39:40;5.23;;;2.90;;
527;SDS011;250;47.712;7.508;2022-10-16T04:42:07;4.50;;;2.43;;
527;SDS011;250;47.712;7.508;2022-10-16T04:44:34;3.80;;;2.40;;
527;SDS011;250;47.712;7.508;2022-10-16T04:47:01;3.40;;;2.30;;
527;SDS011;250;47.712;7.508;2022-10-16T04:49:29;3.67;;;2.30;;
527;SDS011;250;47.712;7.508;2022-10-16T04:51:56;2.20;;;1.57;;
527;SDS011;250;47.712;7.508;2022-10-16T04:54:23;2.07;;;1.47;;
527;SDS011;250;47.712;7.508;2022-10-16T04:56:50;2.70;;;1.60;;
527;SDS011;250;47.712;7.508;2022-10-16T04:59:17;11.33;;;2.10;;
527;SDS011;250;47.712;7.508;2022-10-16T05:01:45;2.30;;;1.30;;
527;SDS011;250;47.712;7.508;2022-10-16T05:04:12;3.23;;;1.80;;
527;SDS011;250;47.712;7.508;2022-10-16T05:06:41;2.87;;;1.43;;
527;SDS011;250;47.712;7.508;2022-10-16T05:09:09;2.33;;;1.57;;
527;SDS011;250;47.712;7.508;2022-10-16T05:11:36;3.17;;;1.87;;
527;SDS011;250;47.712;7.508;2022-10-16T05:14:03;2.10;;;1.00;;
527;SDS011;250;47.712;7.508;2022-10-16T05:16:30;2.33;;;0.90;;
527;SDS011;250;47.712;7.508;2022-10-16T05:18:57;1.87;;;1.00;;
527;SDS011;250;47.712;7.508;2022-10-16T05:21:24;3.43;;;1.00;;
527;SDS011;250;47.712;7.508;2022-10-16T05:23:53;2.03;;;0.83;;
527;SDS011;250;47.712;7.508;2022-10-16T05:26:21;1.50;;;1.00;;
527;SDS011;250;47.712;7.508;2022-10-16T05:28:48;2.60;;;1.13;;
527;SDS011;250;47.712;7.508;2022-10-16T05:31:16;1.53;;;0.90;;
527;SDS011;250;47.712;7.508;2022-10-16T05:33:43;2.20;;;1.00;;
527;SDS011;250;47.712;7.508;2022-10-16T05:36:10;1.60;;;1.00;;
527;SDS011;250;47.712;7.508;2022-10-16T05:38:38;2.23;;;1.47;;
527;SDS011;250;47.712;7.508;2022-10-16T05:41:06;1.33;;;0.70;;
527;SDS011;250;47.712;7.508;2022-10-16T05:43:33;2.97;;;1.50;;
527;SDS011;250;47.712;7.508;2022-10-16T05:46:01;1.53;;;0.80;;
527;SDS011;250;47.712;7.508;2022-10-16T05:48:29;1.73;;;0.80;;
527;SDS011;250;47.712;7.508;2022-10-16T05:50:57;1.90;;;1.10;;
527;SDS011;250;47.712;7.508;2022-10-16T05:53:24;1.90;;;0.83;;
527;SDS011;250;47.712;7.508;2022-10-16T05:55:53;2.47;;;0.90;;
527;SDS011;250;47.712;7.508;2022-10-16T05:58:22;1.73;;;0.77;;
527;SDS011;250;47.712;7.508;2022-10-16T06:00:53;4.20;;;1.67;;
527;SDS011;250;47.712;7.508;2022-10-16T06:03:20;1.90;;;1.20;;
527;SDS011;250;47.712;7.508;2022-10-16T06:05:47;1.40;;;0.77;;
527;SDS011;250;47.712;7.508;2022-10-16T06:08:14;1.37;;;0.80;;
527;SDS011;250;47.712;7.508;2022-10-16T06:10:42;3.33;;;1.33;;
527;SDS011;250;47.712;7.508;2022-10-16T06:13:09;1.80;;;0.80;;
527;SDS011;250;47.712;7.508;2022-10-16T06:15:38;2.80;;;1.03;;
527;SDS011;250;47.712;7.508;2022-10-16T06:18:08;2.03;;;0.60;;
527;SDS011;250;47.712;7.508;2022-10-16T06:20:35;1.83;;;0.90;;
527;SDS011;250;47.712;7.508;2022-10-16T06:23:02;1.50;;;1.00;;
527;SDS011;250;47.712;7.508;2022-10-16T06:25:30;1.23;;;0.60;;
527;SDS011;250;47.712;7.508;2022-10-16T06:27:57;1.87;;;1.00;;
527;SDS011;250;47.712;7.508;2022-10-16T06:30:24;2.17;;;0.70;;
527;SDS011;250;47.712;7.508;2022-10-16T06:32:52;1.63;;;1.10;;
527;SDS011;250;47.712;7.508;2022-10-16T06:35:19;1.50;;;0.97;;
527;SDS011;250;47.712;7.508;2022-10-16T06:37:46;2.60;;;1.10;;
527;SDS011;250;47.712;7.508;2022-10-16T06:40:13;1.90;;;0.97;;
527;SDS011;250;47.712;7.508;2022-10-16T06:42:41;1.77;;;0.90;;
527;SDS011;250;47.712;7.508;2022-10-16T06:45:08;1.53;;;0.70;;
527;SDS011;250;47.712;7.508;2022-10-16T06:47:36;2.10;;;1.40;;
527;SDS011;250;47.712;7.508;2022-10-16T06:50:05;1.63;;;1.10;;
527;SDS011;250;47.712;7.508;2022-10-16T06:52:32;2.03;;;0.90;;
527;SDS011;250;47.712;7.508;2022-10-16T06:55:00;2.03;;;1.20;;
527;SDS011;250;47.712;7.508;2022-10-16T06:57:27;6.43;;;1.43;;
527;SDS011;250;47.712;7.508;2022-10-16T06:59:55;1.53;;;0.90;;
527;SDS011;250;47.712;7.508;2022-10-16T07:02:22;2.10;;;1.03;;
527;SDS011;250;47.712;7.508;2022-10-16T07:04:49;1.57;;;1.00;;
527;SDS011;250;47.712;7.508;2022-10-16T07:07:17;2.00;;;1.27;;
527;SDS011;250;47.712;7.508;2022-10-16T07:09:44;2.43;;;1.13;;
527;SDS011;250;47.712;7.508;2022-10-16T07:12:11;1.73;;;1.23;;
527;SDS011;250;47.712;7.508;2022-10-16T07:14:38;2.27;;;1.03;;
527;SDS011;250;47.712;7.508;2022-10-16T07:17:05;2.10;;;1.03;;
527;SDS011;250;47.712;7.508;2022-10-16T07:19:32;2.17;;;1.30;;
527;SDS011;250;47.712;7.508;2022-10-16T07:21:59;1.47;;;0.80;;
527;SDS011;250;47.712;7.508;2022-10-16T07:24:27;13.00;;;1.37;;
527;SDS011;250;47.712;7.508;2022-10-16T07:26:54;1.43;;;0.80;;
527;SDS011;250;47.712;7.508;2022-10-16T07:29:21;2.50;;;1.53;;
527;SDS011;250;47.712;7.508;2022-10-16T07:31:48;1.50;;;0.90;;
527;SDS011;250;47.712;7.508;2022-10-16T07:34:16;2.77;;;1.67;;
527;SDS011;250;47.712;7.508;2022-10-16T07:36:47;1.87;;;1.13;;
527;SDS011;250;47.712;7.508;2022-10-16T07:39:14;3.03;;;2.10;;
527;SDS011;250;47.712;7.508;2022-10-16T07:41:42;1.73;;;1.40;;
527;SDS011;250;47.712;7.508;2022-10-16T07:44:09;2.27;;;1.40;;
527;SDS011;250;47.712;7.508;2022-10-16T07:46:36;2.60;;;1.30;;
527;SDS011;250;47.712;7.508;2022-10-16T07:49:03;2.07;;;1.87;;
527;SDS011;250;47.712;7.508;2022-10-16T07:51:30;9.13;;;1.10;;
527;SDS011;250;47.712;7.508;2022-10-16T07:53:57;1.60;;;0.97;;
527;SDS011;250;47.712;7.508;2022-10-16T07:56:24;2.00;;;1.50;;
527;SDS011;250;47.712;7.508;2022-10-16T07:58:53;1.53;;;0.80;;
527;SDS011;250;47.712;7.508;2022-10-16T08:01:21;2.63;;;1.63;;
527;SDS011;250;47.712;7.508;2022-10-16T08:03:48;3.10;;;1.53;;
527;SDS011;250;47.712;7.508;2022-10-16T08:06:17;2.10;;;1.10;;
527;SDS011;250;47.712;7.508;2022-10-16T08:08:45;1.70;;;1.03;;
527;SDS011;250;47.712;7.508;2022-10-16T08:11:12;2.80;;;1.23;;
527;SDS011;250;47.712;7.508;2022-10-16T08:13:40;2.07;;;1.20;;
527;SDS011;250;47.712;7.508;2022-10-16T08:16:08;3.70;;;1.13;;
527;SDS011;250;47.712;7.508;2022-10-16T08:18:36;1.83;;;0.90;;
527;SDS011;250;47.712;7.508;2022-10-16T08:21:05;2.60;;;1.13;;
527;SDS011;250;47.712;7.508;2022-10-16T08:23:32;2.20;;;1.03;;
527;SDS011;250;47.712;7.508;2022-10-16T08:26:02;1.77;;;0.73;;
527;SDS011;250;47.712;7.508;2022-10-16T08:28:32;3.53;;;1.77;;
527;SDS011;250;47.712;7.508;2022-10-16T08:31:04;3.03;;;1.20;;
527;SDS011;250;47.712;7.508;2022-10-16T08:33:34;1.20;;;0.70;;
527;SDS011;250;47.712;7.508;2022-10-16T08:36:01;1.20;;;0.77;;
527;SDS011;250;47.712;7.508;2022-10-16T08:38:29;1.30;;;0.73;;
527;SDS011;250;47.712;7.508;2022-10-16T08:40:57;1.40;;;0.70;;
527;SDS011;250;47.712;7.508;2022-10-16T08:43:43;2.60;;;2.40;;
527;SDS011;250;47.712;7.508;2022-10-16T08:46:23;1.70;;;1.00;;
527;SDS011;250;47.712;7.508;2022-10-16T08:49:00;7.73;;;2.07;;
527;SDS011;250;47.712;7.508;2022-10-16T08:51:30;1.80;;;0.93;;
527;SDS011;250;47.712;7.508;2022-10-16T08:54:01;1.73;;;1.17;;
527;SDS011;250;47.712;7.508;2022-10-16T08:56:30;1.30;;;0.80;;
527;SDS011;250;47.712;7.508;2022-10-16T08:58:59;5.27;;;0.70;;
527;SDS011;250;47.712;7.508;2022-10-16T09:01:29;1.33;;;0.70;;
527;SDS011;250;47.712;7.508;2022-10-16T09:04:11;1.17;;;0.43;;
527;SDS011;250;47.712;7.508;2022-10-16T09:07:06;2.43;;;1.43;;
527;SDS011;250;47.712;7.508;2022-10-16T09:09:53;1.90;;;0.97;;
527;SDS011;250;47.712;7.508;2022-10-16T09:12:31;1.70;;;0.93;;
527;SDS011;250;47.712;7.508;2022-10-16T09:15:07;1.80;;;0.77;;
527;SDS011;250;47.712;7.508;2022-10-16T09:17:49;2.27;;;0.90;;
527;SDS011;250;47.712;7.508;2022-10-16T09:20:26;1.50;;;0.60;;
527;SDS011;250;47.712;7.508;2022-10-16T09:23:10;1.43;;;0.90;;
527;SDS011;250;47.712;7.508;2022-10-16T09:25:43;2.40;;;0.90;;
527;SDS011;250;47.712;7.508;2022-10-16T09:28:12;1.40;;;0.73;;
527;SDS011;250;47.712;7.508;2022-10-16T09:30:40;2.33;;;1.03;;
527;SDS011;250;47.712;7.508;2022-10-16T09:33:07;2.07;;;0.80;;
527;SDS011;250;47.712;7.508;2022-10-16T09:35:38;1.60;;;1.20;;
527;SDS011;250;47.712;7.508;2022-10-16T09:38:08;1.90;;;0.80;;
527;SDS011;250;47.712;7.508;2022-10-16T09:40:35;2.13;;;1.13;;
527;SDS011;250;47.712;7.508;2022-10-16T09:43:10;6.90;;;1.00;;
527;SDS011;250;47.712;7.508;2022-10-16T09:45:53;2.23;;;1.50;;
527;SDS011;250;47.712;7.508;2022-10-16T09:48:21;9.30;;;1.00;;
527;SDS011;250;47.712;7.508;2022-10-16T09:50:58;2.07;;;1.17;;
527;SDS011;250;47.712;7.508;2022-10-16T09:53:26;2.57;;;1.00;;
527;SDS011;250;47.712;7.508;2022-10-16T09:56:09;1.97;;;0.87;;
527;SDS011;250;47.712;7.508;2022-10-16T09:58:41;1.40;;;0.73;;
527;SDS011;250;47.712;7.508;2022-10-16T10:01:11;1.80;;;1.10;;
527;SDS011;250;47.712;7.508;2022-10-16T10:03:41;1.30;;;0.70;;
527;SDS011;250;47.712;7.508;2022-10-16T10:06:20;3.77;;;1.07;;
527;SDS011;250;47.712;7.508;2022-10-16T10:08:54;8.07;;;1.23;;
527;SDS011;250;47.712;7.508;2022-10-16T10:11:45;1.47;;;0.70;;
527;SDS011;250;47.712;7.508;2022-10-16T10:14:16;1.43;;;0.73;;
527;SDS011;250;47.712;7.508;2022-10-16T10:16:46;2.27;;;0.90;;
527;SDS011;250;47.712;7.508;2022-10-16T10:19:14;3.70;;;1.07;;
527;SDS011;250;47.712;7.508;2022-10-16T10:21:44;2.07;;;0.70;;
527;SDS011;250;47.712;7.508;2022-10-16T10:24:12;3.43;;;1.53;;
527;SDS011;250;47.712;7.508;2022-10-16T10:26:41;8.00;;;0.60;;
527;SDS011;250;47.712;7.508;2022-10-16T10:29:17;1.27;;;0.67;;
527;SDS011;250;47.712;7.508;2022-10-16T10:31:51;1.80;;;1.03;;
527;SDS011;250;47.712;7.508;2022-10-16T10:34:31;1.20;;;0.60;;
527;SDS011;250;47.712;7.508;2022-10-16T10:37:07;2.23;;;1.10;;
527;SDS011;250;47.712;7.508;2022-10-16T10:39:47;1.53;;;1.10;;
527;SDS011;250;47.712;7.508;2022-10-16T10:42:22;1.30;;;0.80;;
527;SDS011;250;47.712;7.508;2022-10-16T10:45:01;1.20;;;0.57;;
527;SDS011;250;47.712;7.508;2022-10-16T10:47:43;1.30;;;0.67;;
527;SDS011;250;47.712;7.508;2022-10-16T10:50:20;2.10;;;1.20;;
527;SDS011;250;47.712;7.508;2022-10-16T10:52:59;1.23;;;0.53;;
527;SDS011;250;47.712;7.508;2022-10-16T10:55:36;1.10;;;0.40;;
527;SDS011;250;47.712;7.508;2022-10-16T10:58:23;1.20;;;0.57;;
527;SDS011;250;47.712;7.508;2022-10-16T11:01:10;1.30;;;0.67;;
527;SDS011;250;47.712;7.508;2022-10-16T11:03:51;2.13;;;0.70;;
527;SDS011;250;47.712;7.508;2022-10-16T11:06:36;1.40;;;0.50;;
527;SDS011;250;47.712;7.508;2022-10-16T11:09:09;1.63;;;0.93;;
527;SDS011;250;47.712;7.508;2022-10-16T11:11:42;1.33;;;0.70;;
527;SDS011;250;47.712;7.508;2022-10-16T11:14:13;1.30;;;0.50;;
527;SDS011;250;47.712;7.508;2022-10-16T11:16:44;1.40;;;0.80;;
527;SDS011;250;47.712;7.508;2022-10-16T11:19:20;6.90;;;0.80;;
527;SDS011;250;47.712;7.508;2022-10-16T11:21:55;1.20;;;0.60;;
527;SDS011;250;47.712;7.508;2022-10-16T11:24:30;1.40;;;0.70;;
527;SDS011;250;47.712;7.508;2022-10-16T11:27:07;1.43;;;0.80;;
527;SDS011;250;47.712;7.508;2022-10-16T11:29:40;1.10;;;0.40;;
527;SDS011;250;47.712;7.508;2022-10-16T11:32:17;2.17;;;0.70;;
527;SDS011;250;47.712;7.508;2022-10-16T11:34:49;1.20;;;0.50;;
527;SDS011;250;47.712;7.508;2022-10-16T11:37:20;2.03;;;0.70;;
527;SDS011;250;47.712;7.508;2022-10-16T11:39:54;1.60;;;0.70;;
527;SDS011;250;47.712;7.508;2022-10-16T11:42:27;1.30;;;0.57;;
527;SDS011;250;47.712;7.508;2022-10-16T11:45:00;2.57;;;1.10;;
527;SDS011;250;47.712;7.508;2022-10-16T11:47:35;1.50;;;0.70;;
527;SDS011;250;47.712;7.508;2022-10-16T11:50:05;2.93;;;1.20;;
527;SDS011;250;47.712;7.508;2022-10-16T11:52:40;1.30;;;0.50;;
527;SDS011;250;47.712;7.508;2022-10-16T11:55:17;1.70;;;0.80;;
527;SDS011;250;47.712;7.508;2022-10-16T11:57:47;7.53;;;2.03;;
527;SDS011;250;47.712;7.508;2022-10-16T12:00:19;1.30;;;0.70;;
527;SDS011;250;47.712;7.508;2022-10-16T12:02:53;1.27;;;0.77;;
527;SDS011;250;47.712;7.508;2022-10-16T12:05:28;1.40;;;0.87;;
527;SDS011;250;47.712;7.508;2022-10-16T12:08:07;1.40;;;0.50;;
527;SDS011;250;47.712;7.508;2022-10-16T12:10:38;1.20;;;0.50;;
527;SDS011;250;47.712;7.508;2022-10-16T12:16:03;1.37;;;0.67;;
527;SDS011;250;47.712;7.508;2022-10-16T12:18:47;1.57;;;0.80;;
527;SDS011;250;47.712;7.508;2022-10-16T12:21:15;2.90;;;1.43;;
527;SDS011;250;47.712;7.508;2022-10-16T12:23:47;1.80;;;0.63;;
527;SDS011;250;47.712;7.508;2022-10-16T12:26:25;3.77;;;1.13;;
527;SDS011;250;47.712;7.508;2022-10-16T12:28:53;2.47;;;0.70;;
527;SDS011;250;47.712;7.508;2022-10-16T12:31:21;1.10;;;0.47;;
527;SDS011;250;47.712;7.508;2022-10-16T12:33:55;1.80;;;0.87;;
527;SDS011;250;47.712;7.508;2022-10-16T12:36:27;6.03;;;1.00;;
527;SDS011;250;47.712;7.508;2022-10-16T12:38:56;13.20;;;1.23;;
527;SDS011;250;47.712;7.508;2022-10-16T12:41:26;1.20;;;0.50;;
527;SDS011;250;47.712;7.508;2022-10-16T12:43:55;1.60;;;0.67;;
527;SDS011;250;47.712;7.508;2022-10-16T12:46:37;1.20;;;0.50;;
527;SDS011;250;47.712;7.508;2022-10-16T12:49:07;1.40;;;0.67;;
527;SDS011;250;47.712;7.508;2022-10-16T12:51:55;1.30;;;0.70;;
527;SDS011;250;47.712;7.508;2022-10-16T12:54:23;5.37;;;0.63;;
527;SDS011;250;47.712;7.508;2022-10-16T12:57:01;1.77;;;0.50;;
527;SDS011;250;47.712;7.508;2022-10-16T12:59:50;1.10;;;0.53;;
527;SDS011;250;47.712;7.508;2022-10-16T13:05:33;3.53;;;1.10;;
527;SDS011;250;47.712;7.508;2022-10-16T13:08:20;5.53;;;1.10;;
527;SDS011;250;47.712;7.508;2022-10-16T13:11:00;1.20;;;0.50;;
527;SDS011;250;47.712;7.508;2022-10-16T13:13:38;1.77;;;0.60;;
527;SDS011;250;47.712;7.508;2022-10-16T13:16:22;1.33;;;0.73;;
527;SDS011;250;47.712;7.508;2022-10-16T13:18:57;1.67;;;0.83;;
527;SDS011;250;47.712;7.508;2022-10-16T13:21:35;1.60;;;0.80;;
527;SDS011;250;47.712;7.508;2022-10-16T13:24:12;2.80;;;0.73;;
527;SDS011;250;47.712;7.508;2022-10-16T13:26:49;1.47;;;0.80;;
527;SDS011;250;47.712;7.508;2022-10-16T13:29:24;3.10;;;1.00;;
527;SDS011;250;47.712;7.508;2022-10-16T13:31:57;2.27;;;1.10;;
527;SDS011;250;47.712;7.508;2022-10-16T13:34:25;1.50;;;0.63;;
527;SDS011;250;47.712;7.508;2022-10-16T13:36:53;1.33;;;0.60;;
527;SDS011;250;47.712;7.508;2022-10-16T13:39:21;1.30;;;0.50;;
527;SDS011;250;47.712;7.508;2022-10-16T13:44:39;1.27;;;0.70;;
527;SDS011;250;47.712;7.508;2022-10-16T13:47:15;1.60;;;0.80;;
527;SDS011;250;47.712;7.508;2022-10-16T13:49:43;4.70;;;0.77;;
527;SDS011;250;47.712;7.508;2022-10-16T13:52:17;2.60;;;1.20;;
527;SDS011;250;47.712;7.508;2022-10-16T13:54:46;3.03;;;1.87;;
527;SDS011;250;47.712;7.508;2022-10-16T13:57:13;2.27;;;1.00;;
527;SDS011;250;47.712;7.508;2022-10-16T13:59:42;1.93;;;0.70;;
527;SDS011;250;47.712;7.508;2022-10-16T14:02:15;1.63;;;1.03;;
527;SDS011;250;47.712;7.508;2022-10-16T14:04:46;1.60;;;0.80;;
527;SDS011;250;47.712;7.508;2022-10-16T14:07:14;6.00;;;1.37;;
527;SDS011;250;47.712;7.508;2022-10-16T14:09:47;1.67;;;0.80;;
527;SDS011;250;47.712;7.508;2022-10-16T14:12:16;1.50;;;0.70;;
527;SDS011;250;47.712;7.508;2022-10-16T14:14:44;1.60;;;0.83;;
527;SDS011;250;47.712;7.508;2022-10-16T14:17:13;1.73;;;0.83;;
527;SDS011;250;47.712;7.508;2022-10-16T14:19:44;2.27;;;1.03;;
527;SDS011;250;47.712;7.508;2022-10-16T14:22:21;1.30;;;0.80;;
527;SDS011;250;47.712;7.508;2022-10-16T14:24:54;2.77;;;1.53;;
527;SDS011;250;47.712;7.508;2022-10-16T14:27:23;1.50;;;0.70;;
527;SDS011;250;47.712;7.508;2022-10-16T14:30:09;1.67;;;0.87;;
527;SDS011;250;47.712;7.508;2022-10-16T14:32:41;1.43;;;0.60;;
527;SDS011;250;47.712;7.508;2022-10-16T14:35:22;1.93;;;0.80;;
527;SDS011;250;47.712;7.508;2022-10-16T14:37:51;2.07;;;0.97;;
527;SDS011;250;47.712;7.508;2022-10-16T14:40:19;1.40;;;0.60;;
527;SDS011;250;47.712;7.508;2022-10-16T14:42:49;3.70;;;1.67;;
527;SDS011;250;47.712;7.508;2022-10-16T14:45:19;1.90;;;0.90;;
527;SDS011;250;47.712;7.508;2022-10-16T14:47:48;1.27;;;0.60;;
527;SDS011;250;47.712;7.508;2022-10-16T14:50:16;1.30;;;0.60;;
527;SDS011;250;47.712;7.508;2022-10-16T14:52:43;5.63;;;0.80;;
527;SDS011;250;47.712;7.508;2022-10-16T14:55:11;1.73;;;0.80;;
527;SDS011;250;47.712;7.508;2022-10-16T14:57:38;2.33;;;0.80;;
527;SDS011;250;47.712;7.508;2022-10-16T15:00:08;3.93;;;0.80;;
527;SDS011;250;47.712;7.508;2022-10-16T15:02:42;1.23;;;0.67;;
527;SDS011;250;47.712;7.508;2022-10-16T15:05:12;1.20;;;0.40;;
527;SDS011;250;47.712;7.508;2022-10-16T15:07:41;1.20;;;0.43;;
527;SDS011;250;47.712;7.508;2022-10-16T15:10:08;1.50;;;0.70;;
527;SDS011;250;47.712;7.508;2022-10-16T15:12:36;1.33;;;0.50;;
527;SDS011;250;47.712;7.508;2022-10-16T15:15:10;1.40;;;0.60;;
527;SDS011;250;47.712;7.508;2022-10-16T15:17:51;1.60;;;1.00;;
527;SDS011;250;47.712;7.508;2022-10-16T15:20:21;1.30;;;0.60;;
527;SDS011;250;47.712;7.508;2022-10-16T15:22:48;8.73;;;0.93;;
527;SDS011;250;47.712;7.508;2022-10-16T15:25:27;5.10;;;1.20;;
527;SDS011;250;47.712;7.508;2022-10-16T15:27:59;9.40;;;1.33;;
527;SDS011;250;47.712;7.508;2022-10-16T15:30:27;1.57;;;0.80;;
527;SDS011;250;47.712;7.508;2022-10-16T15:32:55;2.00;;;1.00;;
527;SDS011;250;47.712;7.508;2022-10-16T15:35:22;8.93;;;0.87;;
527;SDS011;250;47.712;7.508;2022-10-16T15:37:49;1.30;;;0.60;;
527;SDS011;250;47.712;7.508;2022-10-16T15:40:17;3.07;;;1.17;;
527;SDS011;250;47.712;7.508;2022-10-16T15:42:45;1.63;;;0.70;;
527;SDS011;250;47.712;7.508;2022-10-16T15:45:13;2.30;;;0.97;;
527;SDS011;250;47.712;7.508;2022-10-16T15:47:40;2.80;;;1.33;;
527;SDS011;250;47.712;7.508;2022-10-16T15:50:10;1.63;;;1.00;;
527;SDS011;250;47.712;7.508;2022-10-16T15:52:38;1.70;;;0.90;;
527;SDS011;250;47.712;7.508;2022-10-16T15:55:05;2.63;;;1.03;;
527;SDS011;250;47.712;7.508;2022-10-16T15:57:34;1.70;;;1.00;;
527;SDS011;250;47.712;7.508;2022-10-16T16:00:06;1.80;;;1.00;;
527;SDS011;250;47.712;7.508;2022-10-16T16:02:34;3.40;;;1.10;;
527;SDS011;250;47.712;7.508;2022-10-16T16:05:01;2.17;;;1.30;;
527;SDS011;250;47.712;7.508;2022-10-16T16:07:30;2.33;;;1.50;;
527;SDS011;250;47.712;7.508;2022-10-16T16:09:59;2.00;;;1.17;;
527;SDS011;250;47.712;7.508;2022-10-16T16:12:26;1.60;;;1.30;;
527;SDS011;250;47.712;7.508;2022-10-16T16:14:53;2.13;;;0.87;;